VA94 weather

Plainview Airport
Powhatan, Virginia, United States

Public forecast

Using degrees Fahrenheit for public forecast. Weather courtesy of forecast.io.

METAR (pilot weather report)

Closest report is Chesterfield County Airport, 19.1 nm (35.4 km) ESE. Retrieved 2019/07/22 22:56 UTC (47 minutes ago):

KFCI 222256Z AUTO 26004KT 10SM CLR 31/23 A2983 RMK AO2 SLP110 T03110233

TAF (pilot weather forecast)

Closest forecast is Richmond International Airport, 27.3 nm (50.5 km) E. Retrieved 2019/07/22 18:39 UTC (5 hours ago):

TAF KRIC 221737Z 2218/2318 23015G25KT P6SM FEW045 FM222100 25012G22KT P6SM VCTS BKN050CB FM230100 22007KT P6SM -SHRA OVC070 FM231100 26006KT 5SM -SHRA OVC018 FM231500 34006KT 5SM SHRA OVC010